Terminal Aerodrome Forecast
Issued by NWS Atlanta, GA

Home | Current Version | Previous Version | Text Only | Print | Product List | Glossary On
Versions: 1 2 3 4 5 6 7 8 9 10 11 12 13 14 15 16 17 18 19
511
FTUS42 KFFC 280532
TAFMCN
TAF
KMCN 280532Z 2806/2906 19005KT 6SM BR FEW015 SCT025
     FM280800 21006KT 5SM BR SCT008 BKN012
     FM280900 21005KT 5SM BR BKN004
     FM281500 19005KT 6SM BR SCT004 BKN012
     FM281700 18007KT P6SM BKN040
     FM282000 21008KT P6SM SCT040
     FM290100 19006KT P6SM SCT250=

USA.gov is the U.S. government's official web portal to all federal, state and local government web resources and services.